sensor_id;sensor_type;location;lat;lon;timestamp;pressure;altitude;pressure_sealevel;temperature;humidity
23229;BME280;11783;50.350;6.576;2023-04-01T00:00:28;94309.34;;;7.08;100.00
23229;BME280;11783;50.350;6.576;2023-04-01T00:02:54;94317.50;;;7.02;100.00
23229;BME280;11783;50.350;6.576;2023-04-01T00:05:20;94297.44;;;7.06;100.00
23229;BME280;11783;50.350;6.576;2023-04-01T00:07:46;94293.75;;;7.02;100.00
23229;BME280;11783;50.350;6.576;2023-04-01T00:10:13;94297.22;;;6.92;100.00
23229;BME280;11783;50.350;6.576;2023-04-01T00:12:39;94287.16;;;6.94;100.00
23229;BME280;11783;50.350;6.576;2023-04-01T00:15:06;94300.88;;;7.01;100.00
23229;BME280;11783;50.350;6.576;2023-04-01T00:17:33;94296.69;;;6.90;100.00
23229;BME280;11783;50.350;6.576;2023-04-01T00:19:59;94292.47;;;6.79;100.00
23229;BME280;11783;50.350;6.576;2023-04-01T00:22:25;94303.53;;;6.86;100.00
23229;BME280;11783;50.350;6.576;2023-04-01T00:24:51;94291.41;;;6.80;100.00
23229;BME280;11783;50.350;6.576;2023-04-01T00:27:18;94293.75;;;6.86;100.00
23229;BME280;11783;50.350;6.576;2023-04-01T00:29:47;94304.31;;;6.86;100.00
23229;BME280;11783;50.350;6.576;2023-04-01T00:32:17;94295.34;;;6.97;100.00
23229;BME280;11783;50.350;6.576;2023-04-01T00:34:44;94294.56;;;6.92;100.00
23229;BME280;11783;50.350;6.576;2023-04-01T00:37:11;94282.16;;;6.92;100.00
23229;BME280;11783;50.350;6.576;2023-04-01T00:39:39;94296.69;;;6.95;100.00
23229;BME280;11783;50.350;6.576;2023-04-01T00:42:09;94305.63;;;6.99;100.00
23229;BME280;11783;50.350;6.576;2023-04-01T00:44:54;94297.75;;;6.89;100.00
23229;BME280;11783;50.350;6.576;2023-04-01T00:47:21;94287.72;;;6.91;100.00
23229;BME280;11783;50.350;6.576;2023-04-01T00:49:51;94297.75;;;6.89;100.00
23229;BME280;11783;50.350;6.576;2023-04-01T00:52:19;94287.19;;;6.89;100.00
23229;BME280;11783;50.350;6.576;2023-04-01T00:54:49;94287.44;;;6.87;100.00
23229;BME280;11783;50.350;6.576;2023-04-01T00:57:26;94292.72;;;6.87;100.00
23229;BME280;11783;50.350;6.576;2023-04-01T00:59:55;94289.28;;;6.87;100.00
23229;BME280;11783;50.350;6.576;2023-04-01T01:02:22;94293.25;;;6.89;100.00
23229;BME280;11783;50.350;6.576;2023-04-01T01:04:48;94293.50;;;6.88;100.00
23229;BME280;11783;50.350;6.576;2023-04-01T01:13:43;94291.69;;;6.73;100.00
23229;BME280;11783;50.350;6.576;2023-04-01T01:16:24;94278.97;;;6.85;100.00
23229;BME280;11783;50.350;6.576;2023-04-01T01:18:58;94284.53;;;6.68;100.00
23229;BME280;11783;50.350;6.576;2023-04-01T01:27:32;94288.25;;;6.67;100.00
23229;BME280;11783;50.350;6.576;2023-04-01T01:30:01;94286.66;;;6.77;100.00
23229;BME280;11783;50.350;6.576;2023-04-01T01:35:33;94287.97;;;6.89;100.00
23229;BME280;11783;50.350;6.576;2023-04-01T01:38:04;94266.59;;;6.81;100.00
23229;BME280;11783;50.350;6.576;2023-04-01T01:40:32;94286.16;;;6.75;100.00
23229;BME280;11783;50.350;6.576;2023-04-01T01:43:05;94290.91;;;6.62;100.00
23229;BME280;11783;50.350;6.576;2023-04-01T01:45:33;94279.53;;;6.67;100.00
23229;BME280;11783;50.350;6.576;2023-04-01T01:48:02;94275.84;;;6.73;100.00
23229;BME280;11783;50.350;6.576;2023-04-01T01:50:29;94271.34;;;6.79;100.00
23229;BME280;11783;50.350;6.576;2023-04-01T01:53:09;94294.06;;;6.70;100.00
23229;BME280;11783;50.350;6.576;2023-04-01T01:55:37;94275.84;;;6.73;100.00
23229;BME280;11783;50.350;6.576;2023-04-01T02:01:06;94273.19;;;6.68;100.00
23229;BME280;11783;50.350;6.576;2023-04-01T02:03:36;94268.19;;;6.72;100.00
23229;BME280;11783;50.350;6.576;2023-04-01T02:06:07;94279.56;;;6.72;100.00
23229;BME280;11783;50.350;6.576;2023-04-01T02:08:52;94271.91;;;6.71;100.00
23229;BME280;11783;50.350;6.576;2023-04-01T02:11:27;94269.25;;;6.65;100.00
23229;BME280;11783;50.350;6.576;2023-04-01T02:13:58;94269.81;;;6.52;100.00
23229;BME280;11783;50.350;6.576;2023-04-01T02:17:04;94270.06;;;6.56;100.00
23229;BME280;11783;50.350;6.576;2023-04-01T02:19:34;94273.75;;;6.50;100.00
23229;BME280;11783;50.350;6.576;2023-04-01T02:22:03;94269.25;;;6.65;100.00
23229;BME280;11783;50.350;6.576;2023-04-01T02:24:33;94267.91;;;6.68;100.00
23229;BME280;11783;50.350;6.576;2023-04-01T02:27:00;94272.69;;;6.71;100.00
23229;BME280;11783;50.350;6.576;2023-04-01T02:29:26;94270.06;;;6.61;100.00
23229;BME280;11783;50.350;6.576;2023-04-01T02:31:53;94293.53;;;6.73;100.00
23229;BME280;11783;50.350;6.576;2023-04-01T02:34:20;94278.75;;;6.72;100.00
23229;BME280;11783;50.350;6.576;2023-04-01T02:36:47;94269.25;;;6.60;100.00
23229;BME280;11783;50.350;6.576;2023-04-01T02:39:13;94267.97;;;6.53;100.00
23229;BME280;11783;50.350;6.576;2023-04-01T02:41:43;94261.88;;;6.47;100.00
23229;BME280;11783;50.350;6.576;2023-04-01T02:44:10;94260.84;;;6.53;100.00
23229;BME280;11783;50.350;6.576;2023-04-01T02:46:36;94261.59;;;6.64;100.00
23229;BME280;11783;50.350;6.576;2023-04-01T02:49:02;94261.88;;;6.47;100.00
23229;BME280;11783;50.350;6.576;2023-04-01T02:51:28;94273.47;;;6.61;100.00
23229;BME280;11783;50.350;6.576;2023-04-01T02:53:53;94261.34;;;6.55;100.00
23229;BME280;11783;50.350;6.576;2023-04-01T02:56:19;94261.56;;;6.69;100.00
23229;BME280;11783;50.350;6.576;2023-04-01T02:58:45;94263.97;;;6.71;100.00
23229;BME280;11783;50.350;6.576;2023-04-01T03:01:10;94271.38;;;6.74;100.00
23229;BME280;11783;50.350;6.576;2023-04-01T03:03:36;94256.84;;;6.71;100.00
23229;BME280;11783;50.350;6.576;2023-04-01T03:06:06;94267.13;;;6.62;100.00
23229;BME280;11783;50.350;6.576;2023-04-01T03:08:31;94267.94;;;6.63;100.00
23229;BME280;11783;50.350;6.576;2023-04-01T03:10:57;94268.75;;;6.38;100.00
23229;BME280;11783;50.350;6.576;2023-04-01T03:13:22;94265.06;;;6.39;100.00
23229;BME280;11783;50.350;6.576;2023-04-01T03:15:48;94265.56;;;6.46;100.00
23229;BME280;11783;50.350;6.576;2023-04-01T03:18:13;94275.59;;;6.44;100.00
23229;BME280;11783;50.350;6.576;2023-04-01T03:20:38;94264.78;;;6.56;100.00
23229;BME280;11783;50.350;6.576;2023-04-01T03:23:04;94274.00;;;6.58;100.00
23229;BME280;11783;50.350;6.576;2023-04-01T03:25:29;94268.22;;;6.46;100.00
23229;BME280;11783;50.350;6.576;2023-04-01T03:27:55;94266.38;;;6.52;100.00
23229;BME280;11783;50.350;6.576;2023-04-01T03:30:21;94265.84;;;6.55;100.00
23229;BME280;11783;50.350;6.576;2023-04-01T03:32:46;94271.09;;;6.50;100.00
23229;BME280;11783;50.350;6.576;2023-04-01T03:35:12;94267.16;;;6.37;100.00
23229;BME280;11783;50.350;6.576;2023-04-01T03:37:37;94269.53;;;6.49;100.00
23229;BME280;11783;50.350;6.576;2023-04-01T03:40:03;94270.84;;;6.46;100.00
23229;BME280;11783;50.350;6.576;2023-04-01T03:42:30;94274.81;;;6.44;100.00
23229;BME280;11783;50.350;6.576;2023-04-01T03:44:56;94286.69;;;6.46;100.00
23229;BME280;11783;50.350;6.576;2023-04-01T03:47:21;94276.38;;;6.50;100.00
23229;BME280;11783;50.350;6.576;2023-04-01T03:49:47;94271.09;;;6.50;100.00
23229;BME280;11783;50.350;6.576;2023-04-01T03:52:12;94261.06;;;6.47;100.00
23229;BME280;11783;50.350;6.576;2023-04-01T03:54:38;94275.06;;;6.57;100.00
23229;BME280;11783;50.350;6.576;2023-04-01T03:57:03;94273.72;;;6.65;100.00
23229;BME280;11783;50.350;6.576;2023-04-01T03:59:29;94273.47;;;6.61;100.00
23229;BME280;11783;50.350;6.576;2023-04-01T04:01:54;94275.84;;;6.68;100.00
23229;BME280;11783;50.350;6.576;2023-04-01T04:04:20;94264.25;;;6.59;100.00
23229;BME280;11783;50.350;6.576;2023-04-01T04:06:45;94271.13;;;6.40;100.00
23229;BME280;11783;50.350;6.576;2023-04-01T04:09:10;94265.56;;;6.05;100.00
23229;BME280;11783;50.350;6.576;2023-04-01T04:11:36;94269.53;;;6.28;100.00
23229;BME280;11783;50.350;6.576;2023-04-01T04:14:01;94259.50;;;6.30;100.00
23229;BME280;11783;50.350;6.576;2023-04-01T04:16:27;94258.44;;;6.26;100.00
23229;BME280;11783;50.350;6.576;2023-04-01T04:18:52;94270.84;;;6.46;100.00
23229;BME280;11783;50.350;6.576;2023-04-01T04:21:18;94271.38;;;6.43;100.00
23229;BME280;11783;50.350;6.576;2023-04-01T04:23:43;94269.25;;;6.30;100.00
23229;BME280;11783;50.350;6.576;2023-04-01T04:26:13;94274.53;;;6.50;100.00
23229;BME280;11783;50.350;6.576;2023-04-01T04:28:40;94272.16;;;6.59;100.00
23229;BME280;11783;50.350;6.576;2023-04-01T04:31:05;94275.34;;;6.56;100.00
23229;BME280;11783;50.350;6.576;2023-04-01T04:33:32;94279.53;;;6.67;100.00
23229;BME280;11783;50.350;6.576;2023-04-01T04:35:58;94278.75;;;6.66;100.00
23229;BME280;11783;50.350;6.576;2023-04-01T04:38:24;94274.28;;;6.72;100.00
23229;BME280;11783;50.350;6.576;2023-04-01T04:40:50;94283.53;;;6.54;100.00
23229;BME280;11783;50.350;6.576;2023-04-01T04:43:17;94276.63;;;6.68;100.00
23229;BME280;11783;50.350;6.576;2023-04-01T04:45:42;94275.84;;;6.78;100.00
23229;BME280;11783;50.350;6.576;2023-04-01T04:48:09;94282.19;;;6.67;100.00
23229;BME280;11783;50.350;6.576;2023-04-01T04:50:40;94271.38;;;6.63;100.00
23229;BME280;11783;50.350;6.576;2023-04-01T04:53:05;94273.47;;;6.72;100.00
23229;BME280;11783;50.350;6.576;2023-04-01T04:55:31;94282.44;;;6.60;100.00
23229;BME280;11783;50.350;6.576;2023-04-01T04:57:56;94280.06;;;6.69;100.00
23229;BME280;11783;50.350;6.576;2023-04-01T05:00:21;94298.28;;;6.60;100.00
23229;BME280;11783;50.350;6.576;2023-04-01T05:02:46;94274.78;;;6.69;100.00
23229;BME280;11783;50.350;6.576;2023-04-01T05:05:12;94272.97;;;6.70;100.00
23229;BME280;11783;50.350;6.576;2023-04-01T05:07:37;94277.16;;;6.76;100.00
23229;BME280;11783;50.350;6.576;2023-04-01T05:10:03;94281.13;;;6.48;100.00
23229;BME280;11783;50.350;6.576;2023-04-01T05:12:28;94270.06;;;6.35;100.00
23229;BME280;11783;50.350;6.576;2023-04-01T05:14:54;94290.91;;;6.42;100.00
23229;BME280;11783;50.350;6.576;2023-04-01T05:17:19;94294.84;;;6.24;100.00
23229;BME280;11783;50.350;6.576;2023-04-01T05:19:44;94289.59;;;6.34;100.00
23229;BME280;11783;50.350;6.576;2023-04-01T05:22:10;94306.22;;;6.45;100.00
23229;BME280;11783;50.350;6.576;2023-04-01T05:24:35;94289.84;;;6.43;100.00
23229;BME280;11783;50.350;6.576;2023-04-01T05:27:00;94304.88;;;6.22;100.00
23229;BME280;11783;50.350;6.576;2023-04-01T05:29:26;94295.41;;;6.36;100.00
23229;BME280;11783;50.350;6.576;2023-04-01T05:31:52;94296.69;;;6.29;100.00
23229;BME280;11783;50.350;6.576;2023-04-01T05:34:17;94301.19;;;6.23;100.00
23229;BME280;11783;50.350;6.576;2023-04-01T05:36:43;94305.69;;;6.38;100.00
23229;BME280;11783;50.350;6.576;2023-04-01T05:39:08;94298.81;;;6.37;100.00
23229;BME280;11783;50.350;6.576;2023-04-01T05:41:38;94304.09;;;6.37;100.00
23229;BME280;11783;50.350;6.576;2023-04-01T05:44:04;94296.44;;;6.41;100.00
23229;BME280;11783;50.350;6.576;2023-04-01T05:46:30;94305.94;;;6.47;100.00
23229;BME280;11783;50.350;6.576;2023-04-01T05:48:56;94302.00;;;6.59;100.00
23229;BME280;11783;50.350;6.576;2023-04-01T05:51:21;94299.06;;;6.66;100.00
23229;BME280;11783;50.350;6.576;2023-04-01T05:53:47;94305.94;;;6.62;100.00
23229;BME280;11783;50.350;6.576;2023-04-01T05:56:12;94302.53;;;6.56;100.00
23229;BME280;11783;50.350;6.576;2023-04-01T05:58:38;94304.88;;;6.63;100.00
23229;BME280;11783;50.350;6.576;2023-04-01T06:01:10;94314.66;;;6.73;100.00
23229;BME280;11783;50.350;6.576;2023-04-01T06:03:36;94310.16;;;6.63;100.00
23229;BME280;11783;50.350;6.576;2023-04-01T06:06:02;94306.72;;;6.47;100.00
23229;BME280;11783;50.350;6.576;2023-04-01T06:08:30;94319.41;;;6.55;100.00
23229;BME280;11783;50.350;6.576;2023-04-01T06:14:16;94315.69;;;6.66;100.00
23229;BME280;11783;50.350;6.576;2023-04-01T06:16:59;94327.06;;;6.67;100.00
23229;BME280;11783;50.350;6.576;2023-04-01T06:19:29;94323.88;;;6.65;100.00
23229;BME280;11783;50.350;6.576;2023-04-01T06:30:32;94346.31;;;6.47;100.00
23229;BME280;11783;50.350;6.576;2023-04-01T06:33:12;94334.72;;;6.63;100.00
23229;BME280;11783;50.350;6.576;2023-04-01T06:35:48;94341.03;;;6.42;100.00
23229;BME280;11783;50.350;6.576;2023-04-01T06:44:26;94347.38;;;6.36;100.00
23229;BME280;11783;50.350;6.576;2023-04-01T06:47:04;94348.44;;;6.45;100.00
23229;BME280;11783;50.350;6.576;2023-04-01T06:49:48;94355.81;;;6.43;100.00
23229;BME280;11783;50.350;6.576;2023-04-01T06:55:34;94358.47;;;6.33;100.00
23229;BME280;11783;50.350;6.576;2023-04-01T06:58:04;94355.28;;;6.36;100.00
23229;BME280;11783;50.350;6.576;2023-04-01T07:00:43;94353.69;;;6.45;100.00
23229;BME280;11783;50.350;6.576;2023-04-01T07:03:29;94359.78;;;6.46;100.00
23229;BME280;11783;50.350;6.576;2023-04-01T07:06:09;94362.16;;;6.47;100.00
23229;BME280;11783;50.350;6.576;2023-04-01T07:08:39;94373.22;;;6.49;100.00
23229;BME280;11783;50.350;6.576;2023-04-01T07:11:09;94365.56;;;6.43;100.00
23229;BME280;11783;50.350;6.576;2023-04-01T07:13:45;94370.84;;;6.37;100.00
23229;BME280;11783;50.350;6.576;2023-04-01T07:16:17;94358.47;;;6.38;100.00
23229;BME280;11783;50.350;6.576;2023-04-01T07:18:58;94369.00;;;6.38;100.00
23229;BME280;11783;50.350;6.576;2023-04-01T07:21:30;94372.19;;;6.40;100.00
23229;BME280;11783;50.350;6.576;2023-04-01T07:24:04;94379.56;;;6.43;100.00
23229;BME280;11783;50.350;6.576;2023-04-01T07:26:31;94376.13;;;6.37;100.00
23229;BME280;11783;50.350;6.576;2023-04-01T07:28:56;94384.56;;;6.45;100.00
23229;BME280;11783;50.350;6.576;2023-04-01T07:59:15;94405.75;;;6.70;100.00
23229;BME280;11783;50.350;6.576;2023-04-01T08:07:13;94411.28;;;6.74;100.00
23229;BME280;11783;50.350;6.576;2023-04-01T08:18:46;94430.53;;;6.84;100.00
23229;BME280;11783;50.350;6.576;2023-04-01T08:21:24;94420.50;;;6.86;100.00
23229;BME280;11783;50.350;6.576;2023-04-01T08:23:56;94427.13;;;6.84;100.00
23229;BME280;11783;50.350;6.576;2023-04-01T08:31:29;94431.09;;;6.96;100.00
23229;BME280;11783;50.350;6.576;2023-04-01T08:33:57;94442.44;;;6.97;100.00
23229;BME280;11783;50.350;6.576;2023-04-01T08:36:28;94435.59;;;6.96;100.00
23229;BME280;11783;50.350;6.576;2023-04-01T08:53:07;94449.59;;;7.12;100.00
23229;BME280;11783;50.350;6.576;2023-04-01T08:55:44;94439.53;;;7.14;100.00
23229;BME280;11783;50.350;6.576;2023-04-01T09:00:54;94448.81;;;7.11;100.00
23229;BME280;11783;50.350;6.576;2023-04-01T09:04:05;94446.94;;;7.12;100.00
23229;BME280;11783;50.350;6.576;2023-04-01T09:06:49;94459.09;;;7.08;100.00
23229;BME280;11783;50.350;6.576;2023-04-01T09:15:18;94472.56;;;7.21;100.00
23229;BME280;11783;50.350;6.576;2023-04-01T09:17:51;94476.78;;;7.17;100.00
23229;BME280;11783;50.350;6.576;2023-04-01T09:26:11;94487.09;;;7.44;100.00
23229;BME280;11783;50.350;6.576;2023-04-01T09:34:41;94485.19;;;7.75;100.00
23229;BME280;11783;50.350;6.576;2023-04-01T09:37:39;94485.50;;;7.64;100.00
23229;BME280;11783;50.350;6.576;2023-04-01T09:43:26;94494.19;;;7.84;100.00
23229;BME280;11783;50.350;6.576;2023-04-01T09:46:19;94489.91;;;7.99;100.00
23229;BME280;11783;50.350;6.576;2023-04-01T09:49:00;94495.97;;;7.99;100.00
23229;BME280;11783;50.350;6.576;2023-04-01T09:51:40;94488.63;;;7.91;100.00
23229;BME280;11783;50.350;6.576;2023-04-01T10:02:05;94506.91;;;7.82;100.00
23229;BME280;11783;50.350;6.576;2023-04-01T10:07:42;94525.38;;;7.77;100.00
23229;BME280;11783;50.350;6.576;2023-04-01T10:10:52;94513.75;;;7.78;100.00
23229;BME280;11783;50.350;6.576;2023-04-01T10:16:40;94523.75;;;8.12;100.00
23229;BME280;11783;50.350;6.576;2023-04-01T10:47:26;94545.22;;;7.80;100.00
23229;BME280;11783;50.350;6.576;2023-04-01T10:53:16;94557.13;;;7.72;100.00
23229;BME280;11783;50.350;6.576;2023-04-01T11:01:14;94539.66;;;7.92;100.00
23229;BME280;11783;50.350;6.576;2023-04-01T11:12:00;94557.09;;;7.98;100.00
23229;BME280;11783;50.350;6.576;2023-04-01T11:37:06;94580.06;;;8.43;100.00
23229;BME280;11783;50.350;6.576;2023-04-01T11:42:49;94562.28;;;8.54;100.00
23229;BME280;11783;50.350;6.576;2023-04-01T11:53:19;94587.38;;;8.71;100.00
23229;BME280;11783;50.350;6.576;2023-04-01T12:01:55;94591.88;;;8.76;100.00
23229;BME280;11783;50.350;6.576;2023-04-01T12:16:20;94604.53;;;8.94;100.00
23229;BME280;11783;50.350;6.576;2023-04-01T12:21:38;94605.84;;;8.92;100.00
23229;BME280;11783;50.350;6.576;2023-04-01T12:40:37;94618.03;;;10.15;100.00
23229;BME280;11783;50.350;6.576;2023-04-01T12:51:07;94643.34;;;10.02;100.00
23229;BME280;11783;50.350;6.576;2023-04-01T12:56:49;94647.63;;;9.59;100.00
23229;BME280;11783;50.350;6.576;2023-04-01T13:02:12;94642.00;;;9.71;100.00
23229;BME280;11783;50.350;6.576;2023-04-01T13:08:44;94648.16;;;9.61;100.00
23229;BME280;11783;50.350;6.576;2023-04-01T13:15:41;94659.19;;;9.79;100.00
23229;BME280;11783;50.350;6.576;2023-04-01T13:21:21;94661.00;;;9.83;100.00
23229;BME280;11783;50.350;6.576;2023-04-01T13:26:36;94669.72;;;9.45;100.00
23229;BME280;11783;50.350;6.576;2023-04-01T13:29:13;94666.59;;;9.37;100.00
23229;BME280;11783;50.350;6.576;2023-04-01T13:42:31;94684.44;;;9.17;100.00
23229;BME280;11783;50.350;6.576;2023-04-01T13:45:19;94683.47;;;8.97;100.00
23229;BME280;11783;50.350;6.576;2023-04-01T13:51:18;94687.66;;;9.08;100.00
23229;BME280;11783;50.350;6.576;2023-04-01T13:56:33;94687.88;;;9.22;100.00
23229;BME280;11783;50.350;6.576;2023-04-01T14:12:47;94706.63;;;8.41;100.00
23229;BME280;11783;50.350;6.576;2023-04-01T14:15:31;94707.94;;;8.43;100.00
23229;BME280;11783;50.350;6.576;2023-04-01T14:26:22;94711.13;;;8.56;100.00
23229;BME280;11783;50.350;6.576;2023-04-01T14:29:07;94711.06;;;8.71;100.00
23229;BME280;11783;50.350;6.576;2023-04-01T14:31:56;94724.31;;;8.81;100.00
23229;BME280;11783;50.350;6.576;2023-04-01T14:34:44;94729.09;;;8.69;100.00
23229;BME280;11783;50.350;6.576;2023-04-01T14:43:03;94726.19;;;8.50;100.00
23229;BME280;11783;50.350;6.576;2023-04-01T14:48:07;94724.84;;;8.53;100.00
23229;BME280;11783;50.350;6.576;2023-04-01T14:50:46;94729.63;;;8.61;100.00
23229;BME280;11783;50.350;6.576;2023-04-01T14:55:54;94741.81;;;8.36;100.00
23229;BME280;11783;50.350;6.576;2023-04-01T14:58:22;94744.16;;;8.28;100.00
23229;BME280;11783;50.350;6.576;2023-04-01T15:03:48;94748.13;;;8.10;100.00
23229;BME280;11783;50.350;6.576;2023-04-01T15:19:42;94752.94;;;8.43;100.00
23229;BME280;11783;50.350;6.576;2023-04-01T15:25:48;94756.09;;;8.66;100.00
23229;BME280;11783;50.350;6.576;2023-04-01T15:39:13;94776.75;;;8.69;100.00
23229;BME280;11783;50.350;6.576;2023-04-01T15:41:50;94782.59;;;8.61;100.00
23229;BME280;11783;50.350;6.576;2023-04-01T15:46:56;94786.28;;;8.65;100.00
23229;BME280;11783;50.350;6.576;2023-04-01T15:49:34;94799.28;;;8.46;100.00
23229;BME280;11783;50.350;6.576;2023-04-01T16:03:09;94804.03;;;8.39;100.00
23229;BME280;11783;50.350;6.576;2023-04-01T16:16:39;94801.06;;;8.30;100.00
23229;BME280;11783;50.350;6.576;2023-04-01T16:24:50;94812.75;;;8.34;100.00
23229;BME280;11783;50.350;6.576;2023-04-01T16:27:36;94820.66;;;8.29;100.00
23229;BME280;11783;50.350;6.576;2023-04-01T16:30:32;94830.94;;;8.15;100.00
23229;BME280;11783;50.350;6.576;2023-04-01T16:33:13;94828.84;;;8.17;100.00
23229;BME280;11783;50.350;6.576;2023-04-01T16:35:58;94829.09;;;8.16;100.00
23229;BME280;11783;50.350;6.576;2023-04-01T16:38:33;94833.91;;;8.19;100.00
23229;BME280;11783;50.350;6.576;2023-04-01T16:43:45;94827.53;;;8.25;100.00
23229;BME280;11783;50.350;6.576;2023-04-01T16:46:23;94832.00;;;8.14;100.00
23229;BME280;11783;50.350;6.576;2023-04-01T16:49:05;94847.88;;;8.04;100.00
23229;BME280;11783;50.350;6.576;2023-04-01T17:02:33;94849.50;;;7.48;100.00
23229;BME280;11783;50.350;6.576;2023-04-01T17:05:09;94866.72;;;7.55;100.00
23229;BME280;11783;50.350;6.576;2023-04-01T17:16:01;94880.22;;;7.59;100.00
23229;BME280;11783;50.350;6.576;2023-04-01T17:33:10;94898.56;;;7.28;100.00
23229;BME280;11783;50.350;6.576;2023-04-01T17:35:59;94909.28;;;7.17;100.00
23229;BME280;11783;50.350;6.576;2023-04-01T17:41:27;94914.03;;;7.15;100.00
23229;BME280;11783;50.350;6.576;2023-04-01T17:44:22;94912.69;;;7.12;100.00
23229;BME280;11783;50.350;6.576;2023-04-01T17:52:37;94925.00;;;6.96;100.00
23229;BME280;11783;50.350;6.576;2023-04-01T17:58:18;94935.53;;;6.91;100.00
23229;BME280;11783;50.350;6.576;2023-04-01T18:09:28;94950.81;;;6.89;100.00
23229;BME280;11783;50.350;6.576;2023-04-01T18:15:13;94953.16;;;6.86;100.00
23229;BME280;11783;50.350;6.576;2023-04-01T18:18:10;94960.28;;;6.85;100.00
23229;BME280;11783;50.350;6.576;2023-04-01T18:23:51;94964.47;;;6.81;100.00
23229;BME280;11783;50.350;6.576;2023-04-01T18:26:29;94960.78;;;6.82;100.00
23229;BME280;11783;50.350;6.576;2023-04-01T18:29:01;94971.16;;;6.89;100.00
23229;BME280;11783;50.350;6.576;2023-04-01T18:31:36;94963.38;;;6.77;100.00
23229;BME280;11783;50.350;6.576;2023-04-01T18:34:12;94968.41;;;6.79;100.00
23229;BME280;11783;50.350;6.576;2023-04-01T18:36:46;94975.78;;;6.77;100.00
23229;BME280;11783;50.350;6.576;2023-04-01T18:50:07;94992.56;;;6.65;100.00
23229;BME280;11783;50.350;6.576;2023-04-01T18:52:42;94988.81;;;6.61;100.00
23229;BME280;11783;50.350;6.576;2023-04-01T18:55:32;94992.56;;;6.65;100.00
23229;BME280;11783;50.350;6.576;2023-04-01T19:00:39;94999.13;;;6.63;100.00
23229;BME280;11783;50.350;6.576;2023-04-01T19:03:18;95009.09;;;6.56;100.00
23229;BME280;11783;50.350;6.576;2023-04-01T19:05:48;95006.16;;;6.52;100.00
23229;BME280;11783;50.350;6.576;2023-04-01T19:19:08;95018.72;;;6.45;100.00
23229;BME280;11783;50.350;6.576;2023-04-01T19:21:35;95022.59;;;6.37;100.00
23229;BME280;11783;50.350;6.576;2023-04-01T19:26:47;95026.09;;;6.43;100.00
23229;BME280;11783;50.350;6.576;2023-04-01T19:37:09;95040.47;;;6.52;100.00
23229;BME280;11783;50.350;6.576;2023-04-01T19:45:23;95051.88;;;6.36;100.00
23229;BME280;11783;50.350;6.576;2023-04-01T19:51:06;95047.91;;;6.33;100.00
23229;BME280;11783;50.350;6.576;2023-04-01T19:53:58;95049.41;;;6.29;100.00
23229;BME280;11783;50.350;6.576;2023-04-01T19:56:36;95048.50;;;6.19;100.00
23229;BME280;11783;50.350;6.576;2023-04-01T19:59:22;95059.66;;;6.26;100.00
23229;BME280;11783;50.350;6.576;2023-04-01T20:04:53;95057.81;;;6.48;100.00
23229;BME280;11783;50.350;6.576;2023-04-01T20:07:27;95072.31;;;6.46;100.00
23229;BME280;11783;50.350;6.576;2023-04-01T20:10:20;95075.69;;;6.41;100.00
23229;BME280;11783;50.350;6.576;2023-04-01T20:13:06;95077.72;;;6.56;100.00
23229;BME280;11783;50.350;6.576;2023-04-01T20:15:45;95087.00;;;6.36;100.00
23229;BME280;11783;50.350;6.576;2023-04-01T20:18:58;95089.31;;;6.33;100.00
23229;BME280;11783;50.350;6.576;2023-04-01T20:21:30;95098.41;;;6.42;100.00
23229;BME280;11783;50.350;6.576;2023-04-01T20:24:03;95093.97;;;6.48;100.00
23229;BME280;11783;50.350;6.576;2023-04-01T20:26:37;95107.72;;;6.50;100.00
23229;BME280;11783;50.350;6.576;2023-04-01T20:31:57;95109.25;;;6.46;100.00
23229;BME280;11783;50.350;6.576;2023-04-01T20:40:32;95110.50;;;6.38;100.00
23229;BME280;11783;50.350;6.576;2023-04-01T20:45:32;95122.50;;;6.29;100.00
23229;BME280;11783;50.350;6.576;2023-04-01T20:50:59;95110.91;;;6.13;100.00
23229;BME280;11783;50.350;6.576;2023-04-01T21:02:22;95130.31;;;6.41;100.00
23229;BME280;11783;50.350;6.576;2023-04-01T21:07:54;95130.28;;;6.57;100.00
23229;BME280;11783;50.350;6.576;2023-04-01T21:13:30;95128.22;;;6.43;100.00
23229;BME280;11783;50.350;6.576;2023-04-01T21:26:52;95144.22;;;6.53;100.00
23229;BME280;11783;50.350;6.576;2023-04-01T21:29:44;95146.56;;;6.71;100.00
23229;BME280;11783;50.350;6.576;2023-04-01T21:34:59;95143.50;;;6.79;100.00
23229;BME280;11783;50.350;6.576;2023-04-01T21:37:49;95149.50;;;6.75;100.00
23229;BME280;11783;50.350;6.576;2023-04-01T21:54:48;95162.88;;;6.29;100.00
23229;BME280;11783;50.350;6.576;2023-04-01T21:57:25;95164.78;;;6.51;100.00
23229;BME280;11783;50.350;6.576;2023-04-01T22:00:17;95161.72;;;6.59;100.00
23229;BME280;11783;50.350;6.576;2023-04-01T22:05:49;95170.88;;;6.34;100.00
23229;BME280;11783;50.350;6.576;2023-04-01T22:14:38;95176.78;;;6.25;100.00
23229;BME280;11783;50.350;6.576;2023-04-01T22:17:29;95175.66;;;6.37;100.00
23229;BME280;11783;50.350;6.576;2023-04-01T22:20:11;95180.16;;;6.37;100.00
23229;BME280;11783;50.350;6.576;2023-04-01T22:22:54;95182.88;;;6.64;100.00
23229;BME280;11783;50.350;6.576;2023-04-01T22:28:03;95178.88;;;6.78;100.00
23229;BME280;11783;50.350;6.576;2023-04-01T22:30:46;95182.81;;;6.97;100.00
23229;BME280;11783;50.350;6.576;2023-04-01T22:36:17;95183.41;;;6.83;100.00
23229;BME280;11783;50.350;6.576;2023-04-01T22:41:50;95188.91;;;6.59;100.00
23229;BME280;11783;50.350;6.576;2023-04-01T22:50:13;95190.78;;;6.42;100.00
23229;BME280;11783;50.350;6.576;2023-04-01T22:52:45;95193.31;;;6.54;100.00
23229;BME280;11783;50.350;6.576;2023-04-01T22:55:19;95190.06;;;6.30;100.00
23229;BME280;11783;50.350;6.576;2023-04-01T22:57:52;95193.41;;;6.25;100.00
23229;BME280;11783;50.350;6.576;2023-04-01T23:00:42;95197.09;;;6.24;100.00
23229;BME280;11783;50.350;6.576;2023-04-01T23:05:44;95198.06;;;6.18;100.00
23229;BME280;11783;50.350;6.576;2023-04-01T23:08:34;95198.16;;;6.23;100.00
23229;BME280;11783;50.350;6.576;2023-04-01T23:11:09;95209.09;;;6.15;100.00
23229;BME280;11783;50.350;6.576;2023-04-01T23:13:47;95203.66;;;6.05;100.00